Airport ICAO


09:34 UTC

1°C

Clear skies


An affordable passengers' Moving Map for your aircraft. Made for the iPad and the iPhone
More information here

LFPV Velizy


Villacoublay FRANCE   VFR CAVOK


METAR LFPV 180930Z AUTO 15004KT CAVOK 01/M02 Q1019 NOSIG 0h04min

TAF LFPV 180800Z 1809/1909 14005KT CAVOK PROB30 TEMPO 1820/1905 3000 BR OVC004 BECMG 1907/1909 3500 RA OVC007 1h34min





NOTAMS

OPEN